sensor_id;sensor_type;location;lat;lon;timestamp;pressure;altitude;pressure_sealevel;temperature;humidity
68793;BME280;55778;54.346;10.210;2023-06-14T00:02:12;101607.56;;;13.56;100.00
68793;BME280;55778;54.346;10.210;2023-06-14T00:04:38;101611.28;;;13.55;100.00
68793;BME280;55778;54.346;10.210;2023-06-14T00:07:06;101615.03;;;13.63;100.00
68793;BME280;55778;54.346;10.210;2023-06-14T00:09:35;101614.88;;;13.65;100.00
68793;BME280;55778;54.346;10.210;2023-06-14T00:12:01;101615.31;;;13.60;100.00
68793;BME280;55778;54.346;10.210;2023-06-14T00:14:26;101614.75;;;13.57;100.00
68793;BME280;55778;54.346;10.210;2023-06-14T00:16:52;101618.94;;;13.42;100.00
68793;BME280;55778;54.346;10.210;2023-06-14T00:19:24;101618.94;;;13.42;100.00
68793;BME280;55778;54.346;10.210;2023-06-14T00:21:50;101619.97;;;13.41;100.00
68793;BME280;55778;54.346;10.210;2023-06-14T00:24:17;101627.00;;;13.34;100.00
68793;BME280;55778;54.346;10.210;2023-06-14T00:26:42;101631.63;;;13.33;100.00
68793;BME280;55778;54.346;10.210;2023-06-14T00:29:07;101620.53;;;13.35;100.00
68793;BME280;55778;54.346;10.210;2023-06-14T00:31:33;101626.69;;;13.37;100.00
68793;BME280;55778;54.346;10.210;2023-06-14T00:33:58;101628.88;;;13.33;100.00
68793;BME280;55778;54.346;10.210;2023-06-14T00:36:23;101628.00;;;13.33;100.00
68793;BME280;55778;54.346;10.210;2023-06-14T00:38:49;101627.84;;;13.25;100.00
68793;BME280;55778;54.346;10.210;2023-06-14T00:41:14;101625.53;;;13.20;100.00
68793;BME280;55778;54.346;10.210;2023-06-14T00:43:39;101630.00;;;13.21;100.00
68793;BME280;55778;54.346;10.210;2023-06-14T00:46:05;101630.72;;;13.14;100.00
68793;BME280;55778;54.346;10.210;2023-06-14T00:48:30;101632.91;;;13.20;100.00
68793;BME280;55778;54.346;10.210;2023-06-14T00:50:57;101639.22;;;13.20;100.00
68793;BME280;55778;54.346;10.210;2023-06-14T00:53:23;101636.34;;;13.22;100.00
68793;BME280;55778;54.346;10.210;2023-06-14T00:55:50;101639.94;;;13.13;100.00
68793;BME280;55778;54.346;10.210;2023-06-14T00:58:15;101643.25;;;13.16;100.00
68793;BME280;55778;54.346;10.210;2023-06-14T01:00:41;101639.34;;;13.09;100.00
68793;BME280;55778;54.346;10.210;2023-06-14T01:03:07;101638.34;;;13.10;100.00
68793;BME280;55778;54.346;10.210;2023-06-14T01:05:33;101634.56;;;13.02;100.00
68793;BME280;55778;54.346;10.210;2023-06-14T01:10:57;101646.41;;;13.02;100.00
68793;BME280;55778;54.346;10.210;2023-06-14T01:13:33;101650.28;;;13.09;100.00
68793;BME280;55778;54.346;10.210;2023-06-14T01:15:59;101642.41;;;13.16;100.00
68793;BME280;55778;54.346;10.210;2023-06-14T01:18:25;101640.03;;;13.02;100.00
68793;BME280;55778;54.346;10.210;2023-06-14T01:20:52;101639.50;;;13.08;100.00
68793;BME280;55778;54.346;10.210;2023-06-14T01:23:21;101640.66;;;13.15;100.00
68793;BME280;55778;54.346;10.210;2023-06-14T01:25:48;101649.28;;;13.10;100.00
68793;BME280;55778;54.346;10.210;2023-06-14T01:28:19;101648.72;;;13.16;100.00
68793;BME280;55778;54.346;10.210;2023-06-14T01:30:47;101642.69;;;13.13;100.00
68793;BME280;55778;54.346;10.210;2023-06-14T01:33:26;101652.72;;;13.03;100.00
68793;BME280;55778;54.346;10.210;2023-06-14T01:35:52;101658.03;;;13.04;100.00
68793;BME280;55778;54.346;10.210;2023-06-14T01:38:20;101647.09;;;13.04;100.00
68793;BME280;55778;54.346;10.210;2023-06-14T01:40:47;101652.28;;;13.07;100.00
68793;BME280;55778;54.346;10.210;2023-06-14T01:43:14;101651.06;;;12.91;100.00
68793;BME280;55778;54.346;10.210;2023-06-14T01:45:41;101650.06;;;12.92;100.00
68793;BME280;55778;54.346;10.210;2023-06-14T01:48:07;101656.53;;;12.91;100.00
68793;BME280;55778;54.346;10.210;2023-06-14T01:50:33;101660.13;;;12.91;100.00
68793;BME280;55778;54.346;10.210;2023-06-14T01:52:59;101653.63;;;12.83;100.00
68793;BME280;55778;54.346;10.210;2023-06-14T01:55:24;101658.22;;;12.82;100.00
68793;BME280;55778;54.346;10.210;2023-06-14T01:57:51;101652.06;;;12.90;100.00
68793;BME280;55778;54.346;10.210;2023-06-14T02:00:17;101652.22;;;12.88;100.00
68793;BME280;55778;54.346;10.210;2023-06-14T02:02:43;101654.94;;;12.88;100.00
68793;BME280;55778;54.346;10.210;2023-06-14T02:05:09;101652.47;;;12.85;100.00
68793;BME280;55778;54.346;10.210;2023-06-14T02:07:35;101645.16;;;12.95;100.00
68793;BME280;55778;54.346;10.210;2023-06-14T02:10:04;101651.44;;;13.07;100.00
68793;BME280;55778;54.346;10.210;2023-06-14T02:12:29;101654.88;;;12.99;100.00
68793;BME280;55778;54.346;10.210;2023-06-14T02:14:55;101653.50;;;12.94;100.00
68793;BME280;55778;54.346;10.210;2023-06-14T02:17:22;101651.06;;;12.91;100.00
68793;BME280;55778;54.346;10.210;2023-06-14T02:19:47;101651.19;;;12.80;100.00
68793;BME280;55778;54.346;10.210;2023-06-14T02:22:14;101657.94;;;12.76;100.00
68793;BME280;55778;54.346;10.210;2023-06-14T02:24:40;101659.88;;;12.64;100.00
68793;BME280;55778;54.346;10.210;2023-06-14T02:27:06;101658.94;;;12.75;100.00
68793;BME280;55778;54.346;10.210;2023-06-14T02:29:31;101654.94;;;12.79;100.00
68793;BME280;55778;54.346;10.210;2023-06-14T02:31:57;101653.50;;;12.84;100.00
68793;BME280;55778;54.346;10.210;2023-06-14T02:34:22;101656.53;;;12.91;100.00
68793;BME280;55778;54.346;10.210;2023-06-14T02:36:48;101646.03;;;12.96;100.00
68793;BME280;55778;54.346;10.210;2023-06-14T02:39:14;101653.38;;;12.95;100.00
68793;BME280;55778;54.346;10.210;2023-06-14T02:41:39;101653.50;;;12.94;100.00
68793;BME280;55778;54.346;10.210;2023-06-14T02:44:05;101650.50;;;12.97;100.00
68793;BME280;55778;54.346;10.210;2023-06-14T02:46:31;101654.13;;;12.97;100.00
68793;BME280;55778;54.346;10.210;2023-06-14T02:48:57;101650.91;;;12.92;100.00
68793;BME280;55778;54.346;10.210;2023-06-14T02:51:22;101658.13;;;12.93;100.00
68793;BME280;55778;54.346;10.210;2023-06-14T02:53:47;101653.22;;;12.87;100.00
68793;BME280;55778;54.346;10.210;2023-06-14T02:56:13;101661.84;;;12.92;100.00
68793;BME280;55778;54.346;10.210;2023-06-14T02:58:38;101657.41;;;12.91;100.00
68793;BME280;55778;54.346;10.210;2023-06-14T03:01:05;101655.69;;;12.90;100.00
68793;BME280;55778;54.346;10.210;2023-06-14T03:03:33;101660.28;;;12.90;100.00
68793;BME280;55778;54.346;10.210;2023-06-14T03:05:58;101666.50;;;12.92;100.00
68793;BME280;55778;54.346;10.210;2023-06-14T03:08:30;101654.41;;;12.94;100.00
68793;BME280;55778;54.346;10.210;2023-06-14T03:10:56;101653.78;;;12.91;100.00
68793;BME280;55778;54.346;10.210;2023-06-14T03:13:22;101652.06;;;12.90;100.00
68793;BME280;55778;54.346;10.210;2023-06-14T03:15:48;101655.97;;;12.87;100.00
68793;BME280;55778;54.346;10.210;2023-06-14T03:18:16;101663.66;;;13.03;100.00
68793;BME280;55778;54.346;10.210;2023-06-14T03:20:42;101667.56;;;13.00;100.00
68793;BME280;55778;54.346;10.210;2023-06-14T03:23:08;101663.78;;;13.01;100.00
68793;BME280;55778;54.346;10.210;2023-06-14T03:25:34;101667.00;;;13.06;100.00
68793;BME280;55778;54.346;10.210;2023-06-14T03:28:03;101663.66;;;13.03;100.00
68793;BME280;55778;54.346;10.210;2023-06-14T03:30:30;101667.13;;;13.05;100.00
68793;BME280;55778;54.346;10.210;2023-06-14T03:32:56;101658.66;;;13.08;100.00
68793;BME280;55778;54.346;10.210;2023-06-14T03:35:22;101665.56;;;13.12;100.00
68793;BME280;55778;54.346;10.210;2023-06-14T03:37:48;101658.53;;;13.19;100.00
68793;BME280;55778;54.346;10.210;2023-06-14T03:40:15;101665.88;;;13.28;100.00
68793;BME280;55778;54.346;10.210;2023-06-14T03:42:43;101666.91;;;13.27;100.00
68793;BME280;55778;54.346;10.210;2023-06-14T03:45:09;101672.94;;;13.21;100.00
68793;BME280;55778;54.346;10.210;2023-06-14T03:47:35;101677.66;;;13.09;100.00
68793;BME280;55778;54.346;10.210;2023-06-14T03:50:04;101679.53;;;13.09;100.00
68793;BME280;55778;54.346;10.210;2023-06-14T03:52:29;101685.13;;;13.07;100.00
68793;BME280;55778;54.346;10.210;2023-06-14T03:54:56;101684.91;;;13.20;100.00
68793;BME280;55778;54.346;10.210;2023-06-14T03:57:23;101686.19;;;13.25;100.00
68793;BME280;55778;54.346;10.210;2023-06-14T03:59:48;101689.22;;;13.22;100.00
68793;BME280;55778;54.346;10.210;2023-06-14T04:02:14;101686.38;;;13.33;100.00
68793;BME280;55778;54.346;10.210;2023-06-14T04:04:41;101682.94;;;13.50;100.00
68793;BME280;55778;54.346;10.210;2023-06-14T04:07:10;101686.69;;;13.49;100.00
68793;BME280;55778;54.346;10.210;2023-06-14T04:09:37;101691.31;;;13.58;100.00
68793;BME280;55778;54.346;10.210;2023-06-14T04:12:02;101684.38;;;13.64;100.00
68793;BME280;55778;54.346;10.210;2023-06-14T04:14:28;101691.44;;;13.66;100.00
68793;BME280;55778;54.346;10.210;2023-06-14T04:16:53;101691.88;;;13.71;100.00
68793;BME280;55778;54.346;10.210;2023-06-14T04:19:19;101690.75;;;13.83;100.00
68793;BME280;55778;54.346;10.210;2023-06-14T04:21:44;101689.72;;;13.94;100.00
68793;BME280;55778;54.346;10.210;2023-06-14T04:24:10;101693.03;;;13.97;100.00
68793;BME280;55778;54.346;10.210;2023-06-14T04:26:41;101687.84;;;14.04;100.00
68793;BME280;55778;54.346;10.210;2023-06-14T04:29:09;101696.81;;;14.06;100.00
68793;BME280;55778;54.346;10.210;2023-06-14T04:31:34;101694.31;;;14.13;100.00
68793;BME280;55778;54.346;10.210;2023-06-14T04:34:03;101694.47;;;14.21;100.00
68793;BME280;55778;54.346;10.210;2023-06-14T04:36:32;101703.16;;;14.26;100.00
68793;BME280;55778;54.346;10.210;2023-06-14T04:39:00;101702.00;;;14.28;100.00
68793;BME280;55778;54.346;10.210;2023-06-14T04:41:26;101695.78;;;14.36;100.00
68793;BME280;55778;54.346;10.210;2023-06-14T04:43:56;101703.66;;;14.48;100.00
68793;BME280;55778;54.346;10.210;2023-06-14T04:46:22;101713.22;;;14.44;100.00
68793;BME280;55778;54.346;10.210;2023-06-14T04:48:47;101707.56;;;14.55;100.00
68793;BME280;55778;54.346;10.210;2023-06-14T04:51:15;101701.34;;;14.63;100.00
68793;BME280;55778;54.346;10.210;2023-06-14T04:53:41;101707.22;;;14.68;100.00
68793;BME280;55778;54.346;10.210;2023-06-14T04:56:09;101703.59;;;14.77;100.00
68793;BME280;55778;54.346;10.210;2023-06-14T04:58:35;101707.16;;;14.87;100.00
68793;BME280;55778;54.346;10.210;2023-06-14T05:01:00;101703.97;;;14.91;100.00
68793;BME280;55778;54.346;10.210;2023-06-14T05:03:27;101707.59;;;14.92;100.00
68793;BME280;55778;54.346;10.210;2023-06-14T05:05:53;101704.66;;;15.03;100.00
68793;BME280;55778;54.346;10.210;2023-06-14T05:08:18;101706.63;;;15.10;100.00
68793;BME280;55778;54.346;10.210;2023-06-14T05:10:45;101711.13;;;15.11;100.00
68793;BME280;55778;54.346;10.210;2023-06-14T05:13:10;101712.25;;;15.09;100.00
68793;BME280;55778;54.346;10.210;2023-06-14T05:15:36;101715.63;;;15.30;100.00
68793;BME280;55778;54.346;10.210;2023-06-14T05:18:01;101707.66;;;15.36;100.00
68793;BME280;55778;54.346;10.210;2023-06-14T05:20:27;101715.31;;;15.42;100.00
68793;BME280;55778;54.346;10.210;2023-06-14T05:22:53;101702.06;;;15.55;100.00
68793;BME280;55778;54.346;10.210;2023-06-14T05:25:20;101705.38;;;15.59;100.00
68793;BME280;55778;54.346;10.210;2023-06-14T05:27:46;101712.13;;;15.82;100.00
68793;BME280;55778;54.346;10.210;2023-06-14T05:30:12;101701.38;;;15.88;100.00
68793;BME280;55778;54.346;10.210;2023-06-14T05:32:38;101710.00;;;15.93;100.00
68793;BME280;55778;54.346;10.210;2023-06-14T05:35:03;101706.47;;;16.01;100.00
68793;BME280;55778;54.346;10.210;2023-06-14T05:37:29;101688.50;;;16.07;100.00
68793;BME280;55778;54.346;10.210;2023-06-14T05:39:56;101707.34;;;16.02;100.00
68793;BME280;55778;54.346;10.210;2023-06-14T05:42:21;101703.97;;;16.08;100.00
68793;BME280;55778;54.346;10.210;2023-06-14T05:44:46;101700.91;;;16.11;100.00
68793;BME280;55778;54.346;10.210;2023-06-14T05:47:12;101705.38;;;16.12;100.00
68793;BME280;55778;54.346;10.210;2023-06-14T05:49:37;101699.69;;;16.31;100.00
68793;BME280;55778;54.346;10.210;2023-06-14T05:52:03;101700.22;;;16.34;99.37
68793;BME280;55778;54.346;10.210;2023-06-14T05:54:28;101709.88;;;16.38;99.27
68793;BME280;55778;54.346;10.210;2023-06-14T05:56:53;101709.13;;;16.46;99.50
68793;BME280;55778;54.346;10.210;2023-06-14T05:59:19;101702.66;;;16.55;98.75
68793;BME280;55778;54.346;10.210;2023-06-14T06:01:44;101706.91;;;16.49;98.94
68793;BME280;55778;54.346;10.210;2023-06-14T06:04:10;101712.38;;;16.67;97.05
68793;BME280;55778;54.346;10.210;2023-06-14T06:06:35;101702.81;;;16.79;95.58
68793;BME280;55778;54.346;10.210;2023-06-14T06:09:01;101713.75;;;16.71;96.21
68793;BME280;55778;54.346;10.210;2023-06-14T06:11:26;101719.75;;;16.92;95.71
68793;BME280;55778;54.346;10.210;2023-06-14T06:13:51;101706.88;;;17.00;93.96
68793;BME280;55778;54.346;10.210;2023-06-14T06:16:17;101715.69;;;17.04;93.60
68793;BME280;55778;54.346;10.210;2023-06-14T06:18:42;101716.19;;;16.99;93.34
68793;BME280;55778;54.346;10.210;2023-06-14T06:21:07;101716.88;;;17.01;93.01
68793;BME280;55778;54.346;10.210;2023-06-14T06:23:33;101714.00;;;17.11;93.30
68793;BME280;55778;54.346;10.210;2023-06-14T06:25:58;101721.66;;;17.25;91.50
68793;BME280;55778;54.346;10.210;2023-06-14T06:28:24;101721.47;;;17.26;91.95
68793;BME280;55778;54.346;10.210;2023-06-14T06:30:49;101726.34;;;17.40;91.62
68793;BME280;55778;54.346;10.210;2023-06-14T06:33:15;101724.22;;;17.60;89.33
68793;BME280;55778;54.346;10.210;2023-06-14T06:35:41;101720.25;;;17.62;89.95
68793;BME280;55778;54.346;10.210;2023-06-14T06:38:06;101717.31;;;17.64;88.46
68793;BME280;55778;54.346;10.210;2023-06-14T06:40:31;101717.91;;;17.75;89.53
68793;BME280;55778;54.346;10.210;2023-06-14T06:42:57;101722.06;;;17.96;88.61
68793;BME280;55778;54.346;10.210;2023-06-14T06:45:22;101722.41;;;18.01;87.51
68793;BME280;55778;54.346;10.210;2023-06-14T06:47:48;101719.13;;;18.13;88.24
68793;BME280;55778;54.346;10.210;2023-06-14T06:50:15;101717.13;;;18.39;85.05
68793;BME280;55778;54.346;10.210;2023-06-14T06:52:40;101722.59;;;18.31;85.92
68793;BME280;55778;54.346;10.210;2023-06-14T06:55:06;101725.75;;;18.60;86.12
68793;BME280;55778;54.346;10.210;2023-06-14T06:57:32;101728.47;;;18.76;83.94
68793;BME280;55778;54.346;10.210;2023-06-14T06:59:57;101727.38;;;19.01;82.32
68793;BME280;55778;54.346;10.210;2023-06-14T07:02:22;101727.16;;;19.27;80.16
68793;BME280;55778;54.346;10.210;2023-06-14T07:04:48;101726.00;;;19.52;77.88
68793;BME280;55778;54.346;10.210;2023-06-14T07:07:13;101735.91;;;19.38;78.16
68793;BME280;55778;54.346;10.210;2023-06-14T07:09:39;101734.41;;;19.66;77.27
68793;BME280;55778;54.346;10.210;2023-06-14T07:12:06;101718.81;;;19.96;77.45
68793;BME280;55778;54.346;10.210;2023-06-14T07:14:33;101726.34;;;20.10;76.16
68793;BME280;55778;54.346;10.210;2023-06-14T07:16:58;101725.84;;;20.15;75.12
68793;BME280;55778;54.346;10.210;2023-06-14T07:19:23;101730.88;;;20.34;75.93
68793;BME280;55778;54.346;10.210;2023-06-14T07:21:49;101743.69;;;20.27;74.31
68793;BME280;55778;54.346;10.210;2023-06-14T07:24:14;101727.72;;;20.37;74.83
68793;BME280;55778;54.346;10.210;2023-06-14T07:26:40;101735.69;;;20.54;73.70
68793;BME280;55778;54.346;10.210;2023-06-14T07:29:05;101739.78;;;20.81;72.12
68793;BME280;55778;54.346;10.210;2023-06-14T07:31:31;101750.38;;;20.92;71.90
68793;BME280;55778;54.346;10.210;2023-06-14T07:33:56;101741.75;;;21.09;68.15
68793;BME280;55778;54.346;10.210;2023-06-14T07:36:22;101747.13;;;21.25;68.95
68793;BME280;55778;54.346;10.210;2023-06-14T07:38:47;101746.91;;;21.41;67.55
68793;BME280;55778;54.346;10.210;2023-06-14T07:41:13;101739.84;;;21.24;67.43
68793;BME280;55778;54.346;10.210;2023-06-14T07:43:38;101745.19;;;21.40;67.10
68793;BME280;55778;54.346;10.210;2023-06-14T07:46:04;101738.53;;;21.70;66.07
68793;BME280;55778;54.346;10.210;2023-06-14T07:48:30;101738.50;;;22.00;64.88
68793;BME280;55778;54.346;10.210;2023-06-14T07:50:55;101745.06;;;22.13;63.53
68793;BME280;55778;54.346;10.210;2023-06-14T07:53:21;101737.38;;;22.15;63.90
68793;BME280;55778;54.346;10.210;2023-06-14T07:55:46;101739.31;;;22.15;62.57
68793;BME280;55778;54.346;10.210;2023-06-14T07:58:12;101743.53;;;22.11;63.43
68793;BME280;55778;54.346;10.210;2023-06-14T08:00:38;101745.41;;;22.46;63.42
68793;BME280;55778;54.346;10.210;2023-06-14T08:03:03;101743.25;;;22.62;61.23
68793;BME280;55778;54.346;10.210;2023-06-14T08:05:29;101746.81;;;22.35;62.53
68793;BME280;55778;54.346;10.210;2023-06-14T08:07:54;101750.44;;;22.78;59.77
68793;BME280;55778;54.346;10.210;2023-06-14T08:10:20;101747.53;;;22.65;61.10
68793;BME280;55778;54.346;10.210;2023-06-14T08:12:46;101742.44;;;22.96;60.03
68793;BME280;55778;54.346;10.210;2023-06-14T08:15:11;101751.38;;;22.64;61.91
68793;BME280;55778;54.346;10.210;2023-06-14T08:17:37;101743.56;;;23.01;60.15
68793;BME280;55778;54.346;10.210;2023-06-14T08:20:03;101748.97;;;23.37;56.60
68793;BME280;55778;54.346;10.210;2023-06-14T08:22:32;101743.78;;;23.27;57.31
68793;BME280;55778;54.346;10.210;2023-06-14T08:25:02;101751.34;;;23.40;55.67
68793;BME280;55778;54.346;10.210;2023-06-14T08:27:28;101747.53;;;23.47;57.02
68793;BME280;55778;54.346;10.210;2023-06-14T08:29:53;101739.59;;;23.17;58.23
68793;BME280;55778;54.346;10.210;2023-06-14T08:32:19;101744.09;;;23.18;59.86
68793;BME280;55778;54.346;10.210;2023-06-14T08:34:44;101749.03;;;23.50;58.93
68793;BME280;55778;54.346;10.210;2023-06-14T08:37:10;101751.13;;;23.82;57.12
68793;BME280;55778;54.346;10.210;2023-06-14T08:39:35;101745.97;;;22.83;57.34
68793;BME280;55778;54.346;10.210;2023-06-14T08:42:01;101752.44;;;23.18;57.23
68793;BME280;55778;54.346;10.210;2023-06-14T08:44:28;101750.56;;;22.28;60.59
68793;BME280;55778;54.346;10.210;2023-06-14T08:46:56;101748.53;;;22.78;59.09
68793;BME280;55778;54.346;10.210;2023-06-14T08:49:22;101750.44;;;22.36;60.99
68793;BME280;55778;54.346;10.210;2023-06-14T08:51:56;101749.31;;;23.00;60.96
68793;BME280;55778;54.346;10.210;2023-06-14T08:54:23;101748.56;;;22.85;60.75
68793;BME280;55778;54.346;10.210;2023-06-14T08:56:49;101750.47;;;23.12;60.57
68793;BME280;55778;54.346;10.210;2023-06-14T08:59:17;101751.59;;;23.45;58.55
68793;BME280;55778;54.346;10.210;2023-06-14T09:01:44;101751.34;;;23.81;56.28
68793;BME280;55778;54.346;10.210;2023-06-14T09:04:10;101763.75;;;23.78;57.10
68793;BME280;55778;54.346;10.210;2023-06-14T09:06:36;101759.59;;;24.02;54.38
68793;BME280;55778;54.346;10.210;2023-06-14T09:09:02;101755.59;;;23.77;54.63
68793;BME280;55778;54.346;10.210;2023-06-14T09:11:30;101755.63;;;23.83;54.48
68793;BME280;55778;54.346;10.210;2023-06-14T09:13:56;101760.75;;;23.86;53.97
68793;BME280;55778;54.346;10.210;2023-06-14T09:16:21;101750.50;;;23.87;55.06
68793;BME280;55778;54.346;10.210;2023-06-14T09:18:47;101757.63;;;23.96;53.76
68793;BME280;55778;54.346;10.210;2023-06-14T09:21:14;101765.16;;;24.02;52.50
68793;BME280;55778;54.346;10.210;2023-06-14T09:23:42;101750.56;;;24.00;52.42
68793;BME280;55778;54.346;10.210;2023-06-14T09:26:12;101753.06;;;23.88;53.32
68793;BME280;55778;54.346;10.210;2023-06-14T09:28:56;101753.66;;;23.77;53.63
68793;BME280;55778;54.346;10.210;2023-06-14T09:31:22;101756.84;;;23.74;53.88
68793;BME280;55778;54.346;10.210;2023-06-14T09:33:49;101754.50;;;24.18;53.41
68793;BME280;55778;54.346;10.210;2023-06-14T09:36:21;101752.38;;;24.33;50.50
68793;BME280;55778;54.346;10.210;2023-06-14T09:38:57;101754.97;;;24.41;51.13
68793;BME280;55778;54.346;10.210;2023-06-14T09:41:36;101759.69;;;24.47;49.06
68793;BME280;55778;54.346;10.210;2023-06-14T09:44:04;101759.06;;;24.52;50.94
68793;BME280;55778;54.346;10.210;2023-06-14T09:46:30;101757.81;;;24.80;47.63
68793;BME280;55778;54.346;10.210;2023-06-14T09:48:57;101756.31;;;24.71;47.46
68793;BME280;55778;54.346;10.210;2023-06-14T09:51:23;101757.63;;;24.82;47.09
68793;BME280;55778;54.346;10.210;2023-06-14T09:53:49;101753.09;;;24.68;46.16
68793;BME280;55778;54.346;10.210;2023-06-14T09:56:28;101753.09;;;24.74;48.06
68793;BME280;55778;54.346;10.210;2023-06-14T09:58:58;101761.44;;;24.94;46.64
68793;BME280;55778;54.346;10.210;2023-06-14T10:01:25;101758.84;;;25.18;46.04
68793;BME280;55778;54.346;10.210;2023-06-14T10:04:04;101746.41;;;25.34;47.03
68793;BME280;55778;54.346;10.210;2023-06-14T10:06:31;101751.31;;;25.45;44.64
68793;BME280;55778;54.346;10.210;2023-06-14T10:08:58;101755.09;;;25.70;44.46
68793;BME280;55778;54.346;10.210;2023-06-14T10:11:26;101744.94;;;25.05;43.25
68793;BME280;55778;54.346;10.210;2023-06-14T10:13:53;101747.25;;;25.41;43.93
68793;BME280;55778;54.346;10.210;2023-06-14T10:16:47;101751.53;;;25.44;43.02
68793;BME280;55778;54.346;10.210;2023-06-14T10:24:28;101741.94;;;24.68;43.43
68793;BME280;55778;54.346;10.210;2023-06-14T10:26:57;101736.88;;;25.61;40.89
68793;BME280;55778;54.346;10.210;2023-06-14T10:29:22;101742.88;;;25.65;41.29
68793;BME280;55778;54.346;10.210;2023-06-14T10:31:56;101751.31;;;25.38;41.62
68793;BME280;55778;54.346;10.210;2023-06-14T10:34:29;101741.69;;;25.34;41.74
68793;BME280;55778;54.346;10.210;2023-06-14T10:37:02;101743.91;;;25.77;40.55
68793;BME280;55778;54.346;10.210;2023-06-14T10:39:28;101755.22;;;26.01;40.12
68793;BME280;55778;54.346;10.210;2023-06-14T10:41:54;101739.03;;;26.10;39.50
68793;BME280;55778;54.346;10.210;2023-06-14T10:46:47;101735.78;;;26.13;39.35
68793;BME280;55778;54.346;10.210;2023-06-14T10:49:16;101736.97;;;26.36;39.08
68793;BME280;55778;54.346;10.210;2023-06-14T10:51:50;101731.28;;;26.18;37.77
68793;BME280;55778;54.346;10.210;2023-06-14T10:54:17;101732.13;;;25.68;38.35
68793;BME280;55778;54.346;10.210;2023-06-14T10:56:52;101736.03;;;25.61;38.82
68793;BME280;55778;54.346;10.210;2023-06-14T10:59:19;101738.72;;;25.87;38.12
68793;BME280;55778;54.346;10.210;2023-06-14T11:02:15;101735.78;;;25.69;37.34
68793;BME280;55778;54.346;10.210;2023-06-14T11:04:52;101741.47;;;25.93;38.10
68793;BME280;55778;54.346;10.210;2023-06-14T11:12:47;101721.81;;;26.13;38.89
68793;BME280;55778;54.346;10.210;2023-06-14T11:15:12;101727.25;;;26.39;38.26
68793;BME280;55778;54.346;10.210;2023-06-14T11:17:38;101720.00;;;26.56;38.29
68793;BME280;55778;54.346;10.210;2023-06-14T11:20:10;101729.97;;;26.21;39.14
68793;BME280;55778;54.346;10.210;2023-06-14T11:22:45;101723.34;;;26.09;38.88
68793;BME280;55778;54.346;10.210;2023-06-14T11:25:13;101722.38;;;26.28;37.80
68793;BME280;55778;54.346;10.210;2023-06-14T11:27:38;101717.41;;;25.99;39.23
68793;BME280;55778;54.346;10.210;2023-06-14T11:30:07;101715.44;;;26.06;39.33
68793;BME280;55778;54.346;10.210;2023-06-14T11:32:32;101713.84;;;26.16;39.14
68793;BME280;55778;54.346;10.210;2023-06-14T11:34:58;101710.03;;;26.11;38.48
68793;BME280;55778;54.346;10.210;2023-06-14T11:37:25;101709.97;;;26.17;38.61
68793;BME280;55778;54.346;10.210;2023-06-14T11:39:56;101699.19;;;26.52;38.53
68793;BME280;55778;54.346;10.210;2023-06-14T11:42:22;101706.88;;;26.63;39.29
68793;BME280;55778;54.346;10.210;2023-06-14T11:44:49;101705.56;;;26.65;37.08
68793;BME280;55778;54.346;10.210;2023-06-14T11:47:15;101709.47;;;26.33;38.55
68793;BME280;55778;54.346;10.210;2023-06-14T11:49:40;101699.34;;;26.63;38.57
68793;BME280;55778;54.346;10.210;2023-06-14T11:52:07;101700.75;;;26.97;37.88
68793;BME280;55778;54.346;10.210;2023-06-14T11:54:33;101708.78;;;26.69;38.87
68793;BME280;55778;54.346;10.210;2023-06-14T11:56:58;101701.72;;;26.60;38.82
68793;BME280;55778;54.346;10.210;2023-06-14T11:59:24;101702.97;;;26.70;38.07
68793;BME280;55778;54.346;10.210;2023-06-14T12:01:52;101699.75;;;26.67;38.57
68793;BME280;55778;54.346;10.210;2023-06-14T12:04:28;101696.03;;;26.73;39.07
68793;BME280;55778;54.346;10.210;2023-06-14T12:06:56;101694.03;;;26.80;38.06
68793;BME280;55778;54.346;10.210;2023-06-14T12:09:23;101696.66;;;26.99;36.59
68793;BME280;55778;54.346;10.210;2023-06-14T12:11:51;101690.00;;;26.45;38.42
68793;BME280;55778;54.346;10.210;2023-06-14T12:14:30;101691.06;;;26.44;39.01
68793;BME280;55778;54.346;10.210;2023-06-14T12:17:06;101684.53;;;27.05;36.22
68793;BME280;55778;54.346;10.210;2023-06-14T12:19:32;101691.69;;;27.01;36.92
68793;BME280;55778;54.346;10.210;2023-06-14T12:22:00;101685.81;;;26.85;37.36
68793;BME280;55778;54.346;10.210;2023-06-14T12:24:29;101685.53;;;26.68;37.36
68793;BME280;55778;54.346;10.210;2023-06-14T12:26:57;101687.06;;;26.89;37.85
68793;BME280;55778;54.346;10.210;2023-06-14T12:29:25;101686.41;;;26.69;37.94
68793;BME280;55778;54.346;10.210;2023-06-14T12:31:50;101686.63;;;27.10;38.29
68793;BME280;55778;54.346;10.210;2023-06-14T12:34:16;101685.19;;;27.26;36.57
68793;BME280;55778;54.346;10.210;2023-06-14T12:36:41;101686.47;;;27.48;37.01
68793;BME280;55778;54.346;10.210;2023-06-14T12:39:10;101681.41;;;27.13;36.29
68793;BME280;55778;54.346;10.210;2023-06-14T12:41:35;101682.97;;;27.34;34.34
68793;BME280;55778;54.346;10.210;2023-06-14T12:44:02;101686.81;;;27.33;34.88
68793;BME280;55778;54.346;10.210;2023-06-14T12:46:30;101688.16;;;26.88;37.29
68793;BME280;55778;54.346;10.210;2023-06-14T12:48:56;101677.56;;;26.72;37.64
68793;BME280;55778;54.346;10.210;2023-06-14T12:51:22;101682.00;;;26.97;37.93